Time;durP1;ratioP1;P1;durP2;ratioP2;P2;SDS_P1;SDS_P2;PMS_P1;PMS_P2;Temp;Humidity;BMP_temperature;BMP_pressure;BME280_temperature;BME280_humidity;BME280_pressure;Samples;Min_cycle;Max_cycle;Signal;HPM_P1;HPM_P2
2022/08/26 00:01:03;;;;;;;15.10;14.10;;;23.90;26.10;;;;;;5056707;28;20175;-46
2022/08/26 00:03:30;;;;;;;12.80;12.20;;;23.90;26.10;;;;;;5056795;28;20171;-46
2022/08/26 00:05:56;;;;;;;13.70;12.93;;;23.90;26.20;;;;;;5056765;28;20229;-43
2022/08/26 00:08:22;;;;;;;13.20;12.60;;;23.90;26.10;;;;;;5056730;28;20409;-46
2022/08/26 00:10:48;;;;;;;14.93;14.00;;;24.00;26.10;;;;;;5056211;28;20439;-47
2022/08/26 00:13:14;;;;;;;14.17;13.27;;;24.00;26.10;;;;;;5055931;28;20416;-42
2022/08/26 00:15:40;;;;;;;14.17;13.27;;;23.90;26.00;;;;;;5056587;28;20913;-46
2022/08/26 00:18:06;;;;;;;14.70;13.80;;;23.90;26.20;;;;;;5056532;28;20574;-42
2022/08/26 00:20:33;;;;;;;13.53;12.73;;;23.70;26.60;;;;;;5056403;28;20421;-44
2022/08/26 00:22:59;;;;;;;14.43;13.57;;;23.60;27.10;;;;;;5056352;28;20209;-43
2022/08/26 00:25:25;;;;;;;14.37;13.37;;;23.50;27.50;;;;;;5056562;28;20632;-43
2022/08/26 00:27:51;;;;;;;13.57;12.93;;;23.50;27.30;;;;;;5056089;28;20765;-43
2022/08/26 00:30:22;;;;;;;13.57;12.87;;;23.60;27.10;;;;;;5056178;28;20406;-45
2022/08/26 00:32:48;;;;;;;14.50;13.70;;;23.60;27.00;;;;;;5056300;28;20410;-45
2022/08/26 00:35:14;;;;;;;13.10;12.40;;;23.70;26.90;;;;;;5074350;28;20921;-53
2022/08/26 00:37:41;;;;;;;13.50;12.87;;;23.70;27.00;;;;;;5056255;28;20171;-50
2022/08/26 00:40:11;;;;;;;14.40;13.60;;;23.70;26.80;;;;;;5055976;28;20803;-47
2022/08/26 00:42:37;;;;;;;14.30;13.50;;;23.70;26.80;;;;;;5055909;28;20457;-43
2022/08/26 00:45:04;;;;;;;14.37;13.63;;;23.70;26.60;;;;;;5055951;28;20430;-44
2022/08/26 00:47:39;;;;;;;14.13;13.23;;;23.80;26.60;;;;;;5056025;28;20913;-46
2022/08/26 00:50:09;;;;;;;13.70;13.00;;;23.80;26.60;;;;;;5055823;28;20467;-52
2022/08/26 00:52:35;;;;;;;14.00;13.30;;;23.80;26.70;;;;;;5056296;28;20835;-47
2022/08/26 00:55:04;;;;;;;15.33;14.33;;;23.70;26.70;;;;;;5055833;28;20437;-46
2022/08/26 00:57:31;;;;;;;14.23;13.50;;;23.80;26.70;;;;;;5055848;28;20456;-45
2022/08/26 00:59:59;;;;;;;13.27;12.53;;;23.70;26.70;;;;;;5055442;28;20420;-44
2022/08/26 01:02:25;;;;;;;14.87;13.63;;;23.70;26.80;;;;;;5055677;28;20510;-52
2022/08/26 01:04:55;;;;;;;15.00;14.23;;;23.70;27.00;;;;;;5055640;28;20778;-51
2022/08/26 01:07:21;;;;;;;14.20;13.17;;;23.70;27.10;;;;;;5055758;28;20182;-51
2022/08/26 01:09:47;;;;;;;14.23;13.50;;;23.70;27.30;;;;;;5055429;28;20913;-45
2022/08/26 01:12:12;;;;;;;15.50;14.50;;;23.70;27.30;;;;;;5055438;28;20417;-43
2022/08/26 01:14:39;;;;;;;14.40;13.70;;;23.60;27.20;;;;;;5055378;28;20182;-44
2022/08/26 01:17:06;;;;;;;14.87;14.07;;;23.70;27.20;;;;;;5055586;28;20576;-47
2022/08/26 01:19:40;;;;;;;14.20;13.30;;;23.70;27.20;;;;;;5055267;28;20462;-49
2022/08/26 01:22:16;;;;;;;13.97;13.37;;;23.70;27.10;;;;;;5055168;28;20987;-43
2022/08/26 01:24:42;;;;;;;14.13;13.43;;;23.70;27.30;;;;;;5055180;28;20957;-44
2022/08/26 01:27:11;;;;;;;14.50;13.70;;;23.70;27.30;;;;;;5055429;28;20424;-44
2022/08/26 01:29:39;;;;;;;14.40;13.67;;;23.60;27.10;;;;;;5055156;28;20409;-42
2022/08/26 01:32:08;;;;;;;13.67;13.07;;;23.70;27.10;;;;;;5054933;28;20951;-44
2022/08/26 01:34:36;;;;;;;14.20;13.37;;;23.70;26.90;;;;;;5054964;28;20448;-41
2022/08/26 01:37:17;;;;;;;14.23;13.43;;;23.60;27.10;;;;;;5055073;28;20425;-43
2022/08/26 01:39:46;;;;;;;14.00;13.10;;;23.50;27.40;;;;;;5054942;28;21193;-48
2022/08/26 01:42:13;;;;;;;14.27;13.47;;;23.50;27.10;;;;;;5072698;28;20457;-47
2022/08/26 01:44:46;;;;;;;12.90;12.20;;;23.50;27.20;;;;;;5054872;28;20501;-46
2022/08/26 01:47:15;;;;;;;14.20;13.50;;;23.50;27.20;;;;;;5054895;28;20442;-51
2022/08/26 01:49:42;;;;;;;14.57;13.77;;;23.60;27.20;;;;;;5054785;28;20471;-42
2022/08/26 01:52:11;;;;;;;14.40;13.50;;;23.50;27.40;;;;;;5054815;28;20405;-42
2022/08/26 01:54:37;;;;;;;13.80;13.10;;;23.50;27.40;;;;;;5054839;28;20827;-42
2022/08/26 01:57:03;;;;;;;14.07;13.27;;;23.50;27.30;;;;;;5054975;28;20418;-50
2022/08/26 01:59:29;;;;;;;14.43;13.73;;;23.50;27.50;;;;;;5072624;28;20471;-46
2022/08/26 02:01:56;;;;;;;14.60;13.70;;;23.50;27.40;;;;;;5054642;28;20492;-42
2022/08/26 02:04:27;;;;;;;14.47;13.70;;;23.50;27.40;;;;;;5054859;28;20439;-46
2022/08/26 02:06:55;;;;;;;14.37;13.40;;;23.50;27.50;;;;;;5054435;28;20420;-42
2022/08/26 02:09:22;;;;;;;14.37;13.67;;;23.50;27.60;;;;;;5054569;28;20773;-45
2022/08/26 02:11:48;;;;;;;14.20;13.50;;;23.50;27.70;;;;;;5054249;28;20425;-43
2022/08/26 02:14:19;;;;;;;14.57;13.60;;;23.40;27.70;;;;;;5072578;28;20438;-43
2022/08/26 02:16:47;;;;;;;15.13;14.33;;;23.50;27.60;;;;;;5054321;28;20517;-42
2022/08/26 02:19:20;;;;;;;14.17;13.53;;;23.40;27.70;;;;;;5054331;28;20448;-42
2022/08/26 02:21:47;;;;;;;13.90;13.10;;;23.40;27.60;;;;;;5053989;28;20530;-46
2022/08/26 02:24:20;;;;;;;13.70;13.00;;;23.40;27.80;;;;;;5054644;28;20409;-47
2022/08/26 02:26:47;;;;;;;14.77;13.67;;;23.40;27.80;;;;;;5054471;28;20510;-50
2022/08/26 02:29:34;;;;;;;14.33;13.53;;;23.40;28.30;;;;;;5054397;28;20428;-48
2022/08/26 02:32:00;;;;;;;13.90;13.10;;;23.40;27.90;;;;;;5053971;28;20421;-46
2022/08/26 02:34:30;;;;;;;14.60;13.80;;;23.40;28.20;;;;;;5053533;28;20482;-47
2022/08/26 02:37:01;;;;;;;14.40;13.50;;;23.40;28.10;;;;;;5054080;28;20421;-49
2022/08/26 02:39:28;;;;;;;14.83;14.13;;;23.30;28.10;;;;;;5054106;28;20409;-52
2022/08/26 02:41:54;;;;;;;15.40;14.27;;;23.40;28.20;;;;;;5053915;28;20485;-53
2022/08/26 02:44:19;;;;;;;15.03;14.03;;;23.40;28.10;;;;;;5054105;28;20461;-48
2022/08/26 02:46:45;;;;;;;13.90;13.20;;;23.40;28.10;;;;;;5053939;28;20171;-53
2022/08/26 02:49:11;;;;;;;15.57;14.77;;;23.40;28.10;;;;;;5054031;28;20178;-49
2022/08/26 02:51:37;;;;;;;15.40;14.60;;;23.40;27.90;;;;;;5053722;28;20237;-49
2022/08/26 02:54:03;;;;;;;14.70;14.00;;;23.40;27.90;;;;;;5053889;28;20536;-54
2022/08/26 02:56:32;;;;;;;14.20;13.47;;;23.30;28.00;;;;;;5053801;28;20500;-49
2022/08/26 02:58:57;;;;;;;14.70;13.90;;;23.30;28.10;;;;;;5053716;28;20414;-52
2022/08/26 03:01:26;;;;;;;14.43;13.53;;;23.30;28.00;;;;;;5053547;28;20424;-49
2022/08/26 03:03:53;;;;;;;13.90;13.30;;;23.30;28.00;;;;;;5053725;28;20175;-48
2022/08/26 03:06:19;;;;;;;15.57;14.77;;;23.30;27.90;;;;;;5053829;28;20796;-48
2022/08/26 03:08:45;;;;;;;15.97;14.97;;;23.30;28.10;;;;;;5053785;28;20425;-47
2022/08/26 03:11:11;;;;;;;15.87;15.10;;;23.30;28.10;;;;;;5053521;28;20254;-46
2022/08/26 03:13:38;;;;;;;15.30;14.50;;;23.30;28.10;;;;;;5053785;28;20751;-52
2022/08/26 03:16:04;;;;;;;15.43;14.67;;;23.20;28.40;;;;;;5071908;28;20179;-49
2022/08/26 03:18:30;;;;;;;15.80;14.97;;;23.20;28.50;;;;;;5053811;28;20747;-49
2022/08/26 03:20:56;;;;;;;16.10;15.10;;;23.20;28.60;;;;;;5053364;28;20416;-52
2022/08/26 03:23:22;;;;;;;14.93;14.10;;;23.10;28.60;;;;;;5053518;28;20455;-48
2022/08/26 03:25:52;;;;;;;15.03;14.23;;;23.10;28.70;;;;;;5053594;28;20228;-49
2022/08/26 03:28:18;;;;;;;15.70;14.83;;;23.10;28.70;;;;;;5053700;28;20203;-48
2022/08/26 03:30:44;;;;;;;15.57;14.57;;;23.10;28.80;;;;;;5053273;28;20445;-51
2022/08/26 03:33:11;;;;;;;14.87;14.17;;;23.10;28.70;;;;;;5053545;28;20428;-50
2022/08/26 03:35:39;;;;;;;14.90;14.10;;;23.00;28.70;;;;;;5053289;28;20425;-45
2022/08/26 03:38:06;;;;;;;15.60;14.90;;;23.00;28.90;;;;;;5053353;28;20509;-48
2022/08/26 03:40:33;;;;;;;15.87;14.97;;;22.90;28.90;;;;;;5053254;28;20421;-50
2022/08/26 03:43:00;;;;;;;15.47;14.67;;;23.00;28.70;;;;;;5053386;28;20582;-47
2022/08/26 03:45:26;;;;;;;16.23;15.10;;;23.00;28.60;;;;;;5053457;28;20439;-50
2022/08/26 03:47:52;;;;;;;14.33;13.60;;;23.00;28.50;;;;;;5055937;28;20406;-50
2022/08/26 03:50:20;;;;;;;15.60;14.67;;;23.00;28.50;;;;;;5056915;28;20413;-47
2022/08/26 03:52:47;;;;;;;16.23;15.33;;;23.00;28.50;;;;;;5053840;28;21036;-48
2022/08/26 03:55:13;;;;;;;16.03;15.20;;;23.00;28.60;;;;;;5037645;28;20421;-48
2022/08/26 03:57:39;;;;;;;15.73;15.03;;;22.80;29.00;;;;;;5037381;28;20414;-50
2022/08/26 04:00:07;;;;;;;17.20;16.27;;;22.70;29.40;;;;;;5037146;28;20418;-41
2022/08/26 04:02:33;;;;;;;15.70;14.80;;;22.70;29.40;;;;;;5037167;28;20454;-44
2022/08/26 04:04:59;;;;;;;15.80;15.10;;;22.70;29.40;;;;;;5037191;28;20411;-46
2022/08/26 04:07:24;;;;;;;16.00;15.20;;;22.70;29.40;;;;;;5037179;28;20186;-54
2022/08/26 04:09:54;;;;;;;16.97;16.07;;;22.70;29.50;;;;;;5055043;28;20176;-52
2022/08/26 04:12:20;;;;;;;16.60;15.40;;;22.70;29.50;;;;;;5037214;28;20221;-49
2022/08/26 04:14:46;;;;;;;16.80;16.00;;;22.70;29.50;;;;;;5037060;28;20418;-50
2022/08/26 04:17:13;;;;;;;16.73;15.73;;;22.80;29.40;;;;;;5037005;28;20182;-50
2022/08/26 04:19:39;;;;;;;16.53;15.63;;;22.70;29.40;;;;;;5036869;28;20203;-52
2022/08/26 04:22:05;;;;;;;16.80;16.00;;;22.80;29.30;;;;;;5036348;28;20457;-43
2022/08/26 04:24:31;;;;;;;17.60;16.70;;;22.80;29.30;;;;;;5036990;28;20445;-42
2022/08/26 04:26:56;;;;;;;16.80;15.87;;;22.80;29.20;;;;;;5036433;28;20264;-41
2022/08/26 04:29:24;;;;;;;16.77;15.77;;;22.80;29.10;;;;;;5036676;28;20623;-43
2022/08/26 04:31:50;;;;;;;16.30;15.33;;;22.80;29.20;;;;;;5036119;28;20588;-43
2022/08/26 04:34:16;;;;;;;16.73;15.83;;;22.80;29.30;;;;;;5035423;28;20505;-43
2022/08/26 04:36:43;;;;;;;17.93;16.80;;;22.70;29.20;;;;;;5035424;28;20422;-43
2022/08/26 04:39:11;;;;;;;16.53;15.73;;;22.70;29.10;;;;;;5035705;28;20418;-43
2022/08/26 04:41:38;;;;;;;15.70;14.90;;;22.70;29.40;;;;;;5035840;28;20447;-48
2022/08/26 04:44:05;;;;;;;15.53;14.70;;;22.70;29.40;;;;;;5036187;28;20406;-47
2022/08/26 04:46:31;;;;;;;16.60;15.80;;;22.70;29.50;;;;;;5036402;28;20498;-53
2022/08/26 04:48:57;;;;;;;15.70;15.00;;;22.70;29.30;;;;;;5036192;28;20808;-43
2022/08/26 04:51:26;;;;;;;16.63;15.83;;;22.70;29.30;;;;;;5036172;28;20425;-43
2022/08/26 04:53:57;;;;;;;16.50;15.60;;;22.70;29.10;;;;;;5036203;28;20410;-42
2022/08/26 04:56:24;;;;;;;17.00;16.00;;;22.70;29.10;;;;;;5036361;28;20497;-47
2022/08/26 04:58:50;;;;;;;16.37;15.57;;;22.70;29.40;;;;;;5034737;28;20480;-48
2022/08/26 05:01:16;;;;;;;16.07;15.27;;;22.70;29.30;;;;;;5051546;28;20818;-49
2022/08/26 05:03:42;;;;;;;16.83;16.00;;;22.70;29.50;;;;;;5035502;28;20180;-46
2022/08/26 05:06:07;;;;;;;16.50;15.60;;;22.70;29.50;;;;;;5043406;28;20913;-47
2022/08/26 05:08:33;;;;;;;18.30;17.13;;;22.70;29.40;;;;;;5055610;28;20175;-46
2022/08/26 05:11:03;;;;;;;16.90;16.00;;;22.60;29.60;;;;;;5055462;28;20181;-47
2022/08/26 05:13:28;;;;;;;16.33;15.53;;;22.60;29.70;;;;;;5055683;28;20296;-44
2022/08/26 05:15:54;;;;;;;15.90;14.70;;;22.60;29.60;;;;;;5055467;28;20976;-44
2022/08/26 05:18:22;;;;;;;16.23;15.47;;;22.60;29.40;;;;;;5055417;28;20216;-42
2022/08/26 05:20:51;;;;;;;17.17;16.30;;;22.60;29.20;;;;;;5055033;28;20639;-43
2022/08/26 05:23:18;;;;;;;16.40;15.70;;;22.60;29.00;;;;;;5073146;28;20460;-44
2022/08/26 05:25:46;;;;;;;16.10;15.30;;;22.30;29.60;;;;;;5055185;28;20446;-42
2022/08/26 05:28:14;;;;;;;17.57;16.57;;;22.20;30.00;;;;;;5055355;28;20437;-43
2022/08/26 05:30:39;;;;;;;16.40;15.60;;;22.10;30.40;;;;;;5054858;28;20815;-43
2022/08/26 05:33:07;;;;;;;16.87;15.90;;;22.10;30.50;;;;;;5055125;28;20418;-47
2022/08/26 05:35:33;;;;;;;17.13;15.90;;;22.20;30.20;;;;;;5054832;28;20187;-48
2022/08/26 05:38:00;;;;;;;18.30;17.20;;;22.20;30.00;;;;;;5054846;28;20882;-50
2022/08/26 05:40:27;;;;;;;17.33;15.93;;;22.30;30.00;;;;;;5054535;28;20487;-46
2022/08/26 05:42:52;;;;;;;17.47;16.57;;;22.40;29.70;;;;;;5054742;28;20488;-47
2022/08/26 05:45:19;;;;;;;16.20;15.40;;;22.40;29.40;;;;;;5054818;28;20442;-48
2022/08/26 05:47:45;;;;;;;17.73;16.47;;;22.50;29.30;;;;;;5054691;28;20179;-48
2022/08/26 05:50:11;;;;;;;17.20;16.30;;;22.50;29.50;;;;;;5054438;28;20409;-51
2022/08/26 05:52:36;;;;;;;17.33;16.33;;;22.50;29.20;;;;;;5051351;28;20418;-52
2022/08/26 05:55:03;;;;;;;18.17;17.17;;;22.60;29.10;;;;;;5034494;28;20201;-51
2022/08/26 05:57:29;;;;;;;17.97;16.67;;;22.60;29.00;;;;;;5034807;28;20203;-53
2022/08/26 05:59:56;;;;;;;17.00;16.20;;;22.60;29.20;;;;;;5034312;28;20461;-46
2022/08/26 06:02:22;;;;;;;18.80;17.37;;;22.60;29.30;;;;;;5034570;28;20203;-44
2022/08/26 06:04:48;;;;;;;17.67;16.03;;;22.60;29.20;;;;;;5034651;28;20418;-48
2022/08/26 06:07:15;;;;;;;17.30;16.37;;;22.50;29.30;;;;;;5034365;28;20429;-43
2022/08/26 06:09:41;;;;;;;18.47;17.10;;;22.50;29.40;;;;;;5033747;28;20406;-45
2022/08/26 06:12:07;;;;;;;17.60;16.60;;;22.50;29.30;;;;;;5034060;28;20445;-47
2022/08/26 06:14:32;;;;;;;18.63;17.20;;;22.50;29.30;;;;;;5034709;28;20611;-46
2022/08/26 06:16:59;;;;;;;17.43;16.47;;;22.50;29.30;;;;;;5034052;28;20172;-46
2022/08/26 06:19:25;;;;;;;17.97;17.00;;;22.50;29.20;;;;;;5034308;28;20587;-43
2022/08/26 06:21:51;;;;;;;17.67;16.77;;;22.50;29.30;;;;;;5041847;28;20540;-43
2022/08/26 06:27:03;;;;;;;17.83;16.33;;;22.60;29.20;;;;;;5072285;28;20210;-43
2022/08/26 06:29:33;;;;;;;18.57;17.47;;;22.60;29.10;;;;;;5054200;28;20437;-43
2022/08/26 06:32:00;;;;;;;16.00;15.20;;;22.60;29.30;;;;;;5053673;28;20504;-43
2022/08/26 06:34:30;;;;;;;16.13;15.33;;;22.60;29.30;;;;;;5053969;28;20426;-47
2022/08/26 06:36:58;;;;;;;17.37;16.27;;;22.60;29.20;;;;;;5045385;28;20479;-48
2022/08/26 06:39:24;;;;;;;16.47;15.57;;;22.70;29.00;;;;;;5034075;28;20410;-49
2022/08/26 06:41:50;;;;;;;16.60;15.60;;;22.70;28.80;;;;;;5033582;28;20824;-51
2022/08/26 06:44:16;;;;;;;17.10;16.10;;;22.60;28.80;;;;;;5033935;28;20645;-52
2022/08/26 06:46:42;;;;;;;16.53;15.73;;;22.60;29.00;;;;;;5033688;28;20416;-51
2022/08/26 06:49:09;;;;;;;15.27;14.37;;;22.70;28.90;;;;;;5033928;28;20936;-50
2022/08/26 06:51:37;;;;;;;15.93;15.03;;;22.70;28.80;;;;;;5037986;28;20432;-49
2022/08/26 06:54:04;;;;;;;15.50;14.80;;;22.80;28.80;;;;;;5053666;28;20410;-49
2022/08/26 06:56:37;;;;;;;17.10;16.10;;;22.80;28.40;;;;;;5037307;28;20461;-44
2022/08/26 06:59:03;;;;;;;17.20;15.77;;;22.80;28.40;;;;;;5033701;28;20414;-49
2022/08/26 07:01:32;;;;;;;17.60;16.50;;;22.70;28.60;;;;;;5033405;28;20419;-49
2022/08/26 07:04:00;;;;;;;16.07;15.20;;;22.70;28.40;;;;;;5033727;28;20433;-44
2022/08/26 07:06:27;;;;;;;16.50;15.50;;;22.70;28.80;;;;;;5051825;28;20422;-45
2022/08/26 07:09:00;;;;;;;17.40;16.00;;;22.70;28.90;;;;;;5053281;28;20513;-46
2022/08/26 07:11:27;;;;;;;16.80;15.90;;;22.70;28.70;;;;;;5052235;28;20485;-45
2022/08/26 07:13:53;;;;;;;17.13;16.13;;;22.80;28.90;;;;;;5051897;28;20712;-45
2022/08/26 07:16:19;;;;;;;16.97;15.43;;;22.80;28.40;;;;;;5053330;28;20925;-48
2022/08/26 07:18:45;;;;;;;17.20;16.30;;;22.70;28.60;;;;;;5053308;28;20182;-46
2022/08/26 07:21:14;;;;;;;17.63;16.50;;;22.60;28.80;;;;;;5054915;28;20418;-54
2022/08/26 07:23:40;;;;;;;17.97;16.43;;;22.60;29.10;;;;;;5057168;28;20484;-47
2022/08/26 07:26:07;;;;;;;18.70;17.80;;;22.60;29.20;;;;;;5057344;28;20421;-50
2022/08/26 07:28:33;;;;;;;17.23;16.33;;;22.60;29.40;;;;;;5056470;28;20418;-52
2022/08/26 07:31:07;;;;;;;17.27;16.13;;;22.70;29.60;;;;;;5056762;28;20421;-48
2022/08/26 07:33:33;;;;;;;17.90;16.90;;;22.60;28.80;;;;;;5057491;28;20508;-51
2022/08/26 07:35:59;;;;;;;17.10;16.10;;;22.60;28.90;;;;;;5074983;28;20421;-53
2022/08/26 07:38:25;;;;;;;17.87;16.77;;;22.60;29.00;;;;;;5058117;28;20886;-50
2022/08/26 07:40:51;;;;;;;16.37;15.40;;;22.70;28.80;;;;;;5037083;28;20471;-54
2022/08/26 07:43:17;;;;;;;17.57;16.47;;;22.70;29.10;;;;;;5037287;28;20207;-49
2022/08/26 07:45:43;;;;;;;17.57;16.37;;;22.70;29.20;;;;;;5037066;28;20321;-53
2022/08/26 07:48:09;;;;;;;16.60;15.80;;;22.80;29.20;;;;;;5037273;28;20824;-55
2022/08/26 07:50:34;;;;;;;20.53;17.27;;;22.80;29.20;;;;;;5036895;28;20414;-54
2022/08/26 07:53:01;;;;;;;17.00;16.00;;;22.80;28.80;;;;;;5037050;28;20183;-49
2022/08/26 07:55:28;;;;;;;18.97;17.10;;;22.90;28.90;;;;;;5045259;28;20175;-49
2022/08/26 07:57:54;;;;;;;17.13;16.17;;;23.00;28.70;;;;;;5056833;28;20559;-46
2022/08/26 08:00:20;;;;;;;16.47;15.67;;;23.10;28.70;;;;;;5056864;28;20860;-46
2022/08/26 08:02:46;;;;;;;18.53;17.10;;;23.10;28.60;;;;;;5056704;28;20207;-48
2022/08/26 08:05:15;;;;;;;17.50;16.30;;;23.10;28.50;;;;;;5056894;28;20466;-45
2022/08/26 08:07:43;;;;;;;16.50;15.70;;;23.20;28.50;;;;;;5056472;28;20433;-46
2022/08/26 08:10:15;;;;;;;17.50;16.40;;;23.30;28.60;;;;;;5056707;28;20409;-47
2022/08/26 08:12:41;;;;;;;17.10;16.20;;;23.20;28.30;;;;;;5074801;28;20413;-45
2022/08/26 08:15:08;;;;;;;17.30;16.47;;;23.30;28.40;;;;;;5056706;28;20802;-45
2022/08/26 08:17:34;;;;;;;17.70;16.70;;;23.30;28.60;;;;;;5056483;28;20482;-55
2022/08/26 08:20:01;;;;;;;18.20;17.10;;;23.40;28.80;;;;;;5056383;28;20418;-54
2022/08/26 08:22:26;;;;;;;17.57;16.40;;;23.30;28.80;;;;;;5038476;28;20216;-52
2022/08/26 08:24:52;;;;;;;18.73;17.27;;;23.40;28.50;;;;;;5047744;28;20471;-51
2022/08/26 08:27:18;;;;;;;18.47;17.30;;;23.50;28.40;;;;;;5056304;28;20262;-54
2022/08/26 08:29:45;;;;;;;19.97;18.57;;;23.50;28.40;;;;;;5056266;28;20203;-53
2022/08/26 08:32:12;;;;;;;18.47;17.57;;;23.60;28.30;;;;;;5055461;28;20416;-53
2022/08/26 08:34:38;;;;;;;17.93;16.70;;;23.60;28.30;;;;;;5056097;28;20425;-53
2022/08/26 08:37:05;;;;;;;17.37;16.27;;;23.70;28.40;;;;;;5054009;28;20421;-54
2022/08/26 08:39:31;;;;;;;18.63;17.30;;;23.70;27.80;;;;;;5036148;28;20203;-53
2022/08/26 08:42:24;;;;;;;19.37;18.17;;;23.80;27.70;;;;;;5035825;28;20489;-52
2022/08/26 08:44:52;;;;;;;17.70;16.80;;;23.90;27.10;;;;;;5036000;28;20779;-52
2022/08/26 08:47:37;;;;;;;18.70;17.60;;;24.00;27.00;;;;;;5036261;28;20410;-54
2022/08/26 08:50:29;;;;;;;16.87;16.07;;;24.10;26.20;;;;;;5035699;28;20414;-52
2022/08/26 08:53:12;;;;;;;16.27;15.33;;;24.30;25.40;;;;;;5062094;28;20932;-54
2022/08/26 08:56:19;;;;;;;16.80;16.00;;;24.50;24.80;;;;;;5073910;28;20410;-51
2022/08/26 08:59:16;;;;;;;16.93;15.73;;;24.50;24.70;;;;;;5056437;28;20524;-55
2022/08/26 09:01:50;;;;;;;16.30;15.17;;;24.60;24.80;;;;;;5055672;28;20453;-52
2022/08/26 09:04:16;;;;;;;17.20;16.20;;;24.60;24.80;;;;;;5055716;28;20482;-55
2022/08/26 09:06:42;;;;;;;16.60;15.60;;;24.70;24.90;;;;;;5055596;28;20936;-54
2022/08/26 09:09:10;;;;;;;18.40;16.13;;;24.70;24.20;;;;;;5052083;28;20180;-55
2022/08/26 09:11:37;;;;;;;17.77;16.77;;;24.80;24.40;;;;;;5035462;28;20433;-49
2022/08/26 09:14:03;;;;;;;17.50;16.33;;;24.90;23.90;;;;;;5035537;28;20418;-51
2022/08/26 09:16:55;;;;;;;17.63;16.33;;;24.90;23.70;;;;;;5035578;28;20564;-45
2022/08/26 09:19:24;;;;;;;17.50;16.20;;;25.00;24.00;;;;;;5035566;28;20172;-48
2022/08/26 09:21:59;;;;;;;16.37;15.57;;;25.10;23.50;;;;;;5035111;28;20454;-45
2022/08/26 09:24:25;;;;;;;16.17;15.27;;;25.10;23.30;;;;;;5035218;28;20449;-51
2022/08/26 09:26:51;;;;;;;15.80;14.93;;;25.10;23.00;;;;;;5035182;28;20911;-50
2022/08/26 09:29:25;;;;;;;16.43;15.60;;;25.10;23.30;;;;;;5035441;28;20467;-52
2022/08/26 09:31:52;;;;;;;15.83;15.03;;;25.20;23.70;;;;;;5035189;28;20183;-49
2022/08/26 09:34:26;;;;;;;17.03;16.03;;;25.20;23.70;;;;;;5035119;28;20496;-46
2022/08/26 09:36:54;;;;;;;16.30;15.30;;;25.30;23.50;;;;;;5035086;28;20430;-49
2022/08/26 09:39:26;;;;;;;16.53;15.70;;;25.30;23.40;;;;;;5052733;28;20429;-51
2022/08/26 09:42:23;;;;;;;16.20;15.30;;;25.40;23.20;;;;;;5054487;28;20532;-47
2022/08/26 09:45:02;;;;;;;17.63;16.47;;;25.50;23.10;;;;;;5054965;28;20418;-48
2022/08/26 09:47:32;;;;;;;17.27;16.17;;;25.50;22.80;;;;;;5055220;28;20784;-46
2022/08/26 09:50:25;;;;;;;17.60;16.70;;;25.60;22.80;;;;;;5054851;28;20421;-51
2022/08/26 09:53:21;;;;;;;16.23;15.30;;;25.60;22.70;;;;;;5050853;28;20426;-49
2022/08/26 09:55:50;;;;;;;18.00;16.60;;;25.70;23.00;;;;;;5042398;28;20457;-52
2022/08/26 09:58:46;;;;;;;17.53;16.10;;;25.80;22.70;;;;;;5035110;28;20413;-46
2022/08/26 10:01:34;;;;;;;17.03;15.77;;;25.90;22.30;;;;;;5018445;28;20414;-51
2022/08/26 10:04:11;;;;;;;17.87;16.70;;;26.00;21.80;;;;;;5035128;28;20934;-53
2022/08/26 10:07:01;;;;;;;18.40;16.90;;;26.10;21.90;;;;;;5052607;28;20409;-50
2022/08/26 10:09:32;;;;;;;20.00;18.70;;;26.30;21.60;;;;;;5054738;28;20805;-50
2022/08/26 10:12:02;;;;;;;17.00;15.90;;;26.40;21.50;;;;;;5054522;28;20426;-48
2022/08/26 10:14:46;;;;;;;18.13;16.63;;;26.60;21.30;;;;;;5072254;28;20916;-46
2022/08/26 10:17:34;;;;;;;17.40;16.00;;;26.80;20.90;;;;;;5054436;28;20774;-52
2022/08/26 10:20:16;;;;;;;18.10;16.60;;;27.00;20.40;;;;;;5054060;28;20421;-52
2022/08/26 10:23:05;;;;;;;16.90;15.77;;;27.20;19.90;;;;;;5054105;28;20999;-52
2022/08/26 10:25:41;;;;;;;17.37;15.87;;;27.40;19.90;;;;;;5054252;28;20417;-51
2022/08/26 10:28:26;;;;;;;16.90;15.70;;;27.60;19.60;;;;;;5054092;28;20424;-54
2022/08/26 10:30:59;;;;;;;17.87;16.57;;;27.80;18.30;;;;;;5053928;28;20445;-51
2022/08/26 10:33:25;;;;;;;16.10;14.80;;;27.90;18.00;;;;;;5054084;28;20936;-51
2022/08/26 10:35:53;;;;;;;16.07;14.67;;;28.00;18.00;;;;;;5043874;28;20434;-55
2022/08/26 10:38:34;;;;;;;16.03;14.50;;;28.00;17.40;;;;;;5034148;28;20176;-55
2022/08/26 10:41:09;;;;;;;16.73;15.47;;;28.00;17.40;;;;;;5033944;28;20449;-50
2022/08/26 10:43:47;;;;;;;16.57;15.20;;;28.10;17.00;;;;;;5034046;28;20457;-54
2022/08/26 10:46:22;;;;;;;16.60;15.40;;;28.20;17.10;;;;;;5034236;28;20414;-53
2022/08/26 10:48:59;;;;;;;16.67;15.50;;;28.40;16.50;;;;;;5033875;28;20494;-52
2022/08/26 10:51:35;;;;;;;17.60;16.30;;;28.60;16.40;;;;;;5033866;28;20418;-53
2022/08/26 10:54:08;;;;;;;15.77;14.97;;;28.70;15.40;;;;;;5033942;28;20513;-55
2022/08/26 10:56:42;;;;;;;15.80;14.90;;;28.90;15.10;;;;;;5033824;28;20418;-55
2022/08/26 10:59:11;;;;;;;16.33;15.23;;;28.90;15.20;;;;;;5033948;28;20457;-51
2022/08/26 11:01:51;;;;;;;16.03;15.10;;;28.90;15.00;;;;;;5033593;28;20419;-49
2022/08/26 11:04:28;;;;;;;15.73;14.73;;;28.90;15.00;;;;;;5033861;28;20421;-49
2022/08/26 11:07:31;;;;;;;15.57;14.67;;;29.00;14.50;;;;;;5033708;28;20944;-48
2022/08/26 11:10:00;;;;;;;19.80;17.80;;;29.00;14.90;;;;;;5033342;28;20410;-51
2022/08/26 11:12:35;;;;;;;17.87;16.47;;;28.90;14.70;;;;;;5033893;28;20414;-45
2022/08/26 11:15:09;;;;;;;14.67;13.90;;;29.00;14.60;;;;;;5033807;28;20417;-45
2022/08/26 11:17:46;;;;;;;16.90;15.47;;;28.90;14.10;;;;;;5033672;28;20410;-48
2022/08/26 11:20:30;;;;;;;17.23;15.50;;;28.90;14.10;;;;;;5033376;28;20517;-48
2022/08/26 11:23:19;;;;;;;17.67;16.60;;;28.80;14.40;;;;;;5033542;28;20461;-46
2022/08/26 11:26:12;;;;;;;16.23;15.10;;;28.80;15.30;;;;;;5033377;28;20431;-44
2022/08/26 11:28:38;;;;;;;15.67;14.87;;;28.70;15.70;;;;;;5031249;28;20452;-47
2022/08/26 11:31:08;;;;;;;16.93;15.83;;;28.70;16.00;;;;;;5033340;28;20831;-47
2022/08/26 11:34:02;;;;;;;15.80;14.80;;;28.60;15.70;;;;;;5033726;28;20234;-46
2022/08/26 11:36:36;;;;;;;15.87;14.87;;;28.40;15.80;;;;;;5033317;28;20440;-44
2022/08/26 11:39:14;;;;;;;17.47;15.70;;;28.40;15.80;;;;;;5033400;28;20428;-45
2022/08/26 11:41:45;;;;;;;16.67;15.23;;;28.20;16.00;;;;;;5033094;28;20771;-47
2022/08/26 11:44:18;;;;;;;16.20;15.10;;;28.10;16.20;;;;;;5033562;28;20414;-45
2022/08/26 11:46:52;;;;;;;16.27;14.83;;;28.10;16.40;;;;;;5033567;28;20411;-45
2022/08/26 11:49:18;;;;;;;16.67;15.40;;;28.10;16.70;;;;;;5033497;28;20468;-46
2022/08/26 11:51:44;;;;;;;16.40;15.30;;;28.00;16.80;;;;;;5033079;28;20514;-47
2022/08/26 11:54:15;;;;;;;17.27;15.50;;;28.00;17.00;;;;;;5033492;28;20517;-46
2022/08/26 11:56:43;;;;;;;16.80;15.90;;;28.10;17.30;;;;;;5032906;28;20186;-53
2022/08/26 11:59:14;;;;;;;16.17;15.00;;;28.10;17.40;;;;;;5033440;28;20456;-52
2022/08/26 12:01:43;;;;;;;15.80;14.60;;;28.20;17.20;;;;;;5032950;28;20453;-52
2022/08/26 12:04:23;;;;;;;16.73;15.27;;;28.20;17.20;;;;;;5033371;28;20429;-51
2022/08/26 12:06:50;;;;;;;16.37;15.20;;;28.30;17.10;;;;;;5044644;28;20775;-51
2022/08/26 12:09:21;;;;;;;17.10;15.53;;;28.50;16.50;;;;;;5056261;28;20465;-52
2022/08/26 12:11:47;;;;;;;15.00;13.80;;;28.50;16.30;;;;;;5056396;28;20417;-50
2022/08/26 12:14:23;;;;;;;16.40;14.77;;;28.60;15.90;;;;;;5056718;28;20504;-49
2022/08/26 12:16:49;;;;;;;15.93;14.87;;;28.70;15.80;;;;;;5056554;28;20179;-53
2022/08/26 12:19:32;;;;;;;16.10;14.67;;;28.60;15.60;;;;;;5056624;28;20760;-53
2022/08/26 12:22:03;;;;;;;16.00;14.73;;;28.70;15.00;;;;;;5055935;28;20453;-55
2022/08/26 12:24:29;;;;;;;15.03;13.90;;;28.70;15.00;;;;;;5056368;28;20422;-54
2022/08/26 12:27:19;;;;;;;15.73;14.50;;;28.70;15.10;;;;;;5056227;28;20909;-51
2022/08/26 12:29:58;;;;;;;15.40;14.50;;;28.70;14.50;;;;;;5056267;28;20425;-53
2022/08/26 12:32:24;;;;;;;20.00;16.27;;;28.80;14.20;;;;;;5056145;28;20428;-53
2022/08/26 12:34:50;;;;;;;15.73;14.57;;;28.80;14.10;;;;;;5056299;28;20762;-49
2022/08/26 12:37:16;;;;;;;15.07;13.97;;;28.70;14.20;;;;;;5056434;28;20271;-54
2022/08/26 12:39:44;;;;;;;16.47;15.10;;;28.70;15.40;;;;;;5056427;28;20270;-53
2022/08/26 12:42:14;;;;;;;15.13;13.90;;;28.70;15.70;;;;;;5056073;28;20548;-55
2022/08/26 12:44:57;;;;;;;15.27;13.93;;;28.60;15.90;;;;;;5056268;28;20420;-54